sensor_id;sensor_type;location;lat;lon;timestamp;pressure;altitude;pressure_sealevel;temperature;humidity
16120;BME280;12670;53.502;10.252;2023-05-01T00:01:34;101684.19;;;8.78;75.69
16120;BME280;12670;53.502;10.252;2023-05-01T00:04:36;101676.19;;;8.81;75.57
16120;BME280;12670;53.502;10.252;2023-05-01T00:07:39;101677.06;;;8.82;75.86
16120;BME280;12670;53.502;10.252;2023-05-01T00:10:42;101674.56;;;8.74;76.00
16120;BME280;12670;53.502;10.252;2023-05-01T00:13:46;101675.44;;;8.75;75.80
16120;BME280;12670;53.502;10.252;2023-05-01T00:16:48;101667.50;;;8.73;75.89
16120;BME280;12670;53.502;10.252;2023-05-01T00:19:51;101660.31;;;8.81;75.55
16120;BME280;12670;53.502;10.252;2023-05-01T00:22:55;101662.13;;;8.79;75.98
16120;BME280;12670;53.502;10.252;2023-05-01T00:25:58;101658.81;;;8.68;76.39
16120;BME280;12670;53.502;10.252;2023-05-01T00:29:02;101657.91;;;8.69;76.48
16120;BME280;12670;53.502;10.252;2023-05-01T00:32:04;101656.00;;;8.76;75.60
16120;BME280;12670;53.502;10.252;2023-05-01T00:35:08;101651.00;;;8.61;76.15
16120;BME280;12670;53.502;10.252;2023-05-01T00:38:11;101654.69;;;8.53;76.21
16120;BME280;12670;53.502;10.252;2023-05-01T00:41:13;101646.53;;;8.64;76.31
16120;BME280;12670;53.502;10.252;2023-05-01T00:44:18;101645.69;;;8.64;75.93
16120;BME280;12670;53.502;10.252;2023-05-01T00:47:20;101643.13;;;8.59;76.58
16120;BME280;12670;53.502;10.252;2023-05-01T00:50:23;101645.03;;;8.51;76.68
16120;BME280;12670;53.502;10.252;2023-05-01T00:53:26;101636.25;;;8.50;76.95
16120;BME280;12670;53.502;10.252;2023-05-01T00:56:30;101634.47;;;8.51;76.80
16120;BME280;12670;53.502;10.252;2023-05-01T00:59:34;101631.91;;;8.46;76.75
16120;BME280;12670;53.502;10.252;2023-05-01T01:02:37;101628.53;;;8.35;77.39
16120;BME280;12670;53.502;10.252;2023-05-01T01:05:45;101630.47;;;8.25;77.73
16120;BME280;12670;53.502;10.252;2023-05-01T01:08:59;101627.81;;;8.25;78.97
16120;BME280;12670;53.502;10.252;2023-05-01T01:12:15;101624.50;;;8.14;78.73
16120;BME280;12670;53.502;10.252;2023-05-01T01:15:29;101620.38;;;7.99;79.17
16120;BME280;12670;53.502;10.252;2023-05-01T01:18:36;101629.69;;;8.22;78.80
16120;BME280;12670;53.502;10.252;2023-05-01T01:21:44;101629.63;;;8.23;78.41
16120;BME280;12670;53.502;10.252;2023-05-01T01:25:03;101622.75;;;8.13;78.13
16120;BME280;12670;53.502;10.252;2023-05-01T01:28:36;101622.06;;;8.04;79.15
16120;BME280;12670;53.502;10.252;2023-05-01T01:31:51;101614.94;;;8.07;79.29
16120;BME280;12670;53.502;10.252;2023-05-01T01:35:02;101614.31;;;7.93;80.01
16120;BME280;12670;53.502;10.252;2023-05-01T01:38:08;101613.53;;;7.88;79.78
16120;BME280;12670;53.502;10.252;2023-05-01T01:41:22;101617.03;;;7.88;79.82
16120;BME280;12670;53.502;10.252;2023-05-01T01:44:29;101609.19;;;7.84;80.27
16120;BME280;12670;53.502;10.252;2023-05-01T01:47:35;101604.69;;;7.89;79.33
16120;BME280;12670;53.502;10.252;2023-05-01T01:50:44;101601.88;;;7.99;79.49
16120;BME280;12670;53.502;10.252;2023-05-01T01:53:50;101609.06;;;7.90;79.44
16120;BME280;12670;53.502;10.252;2023-05-01T01:56:55;101597.47;;;8.00;78.84
16120;BME280;12670;53.502;10.252;2023-05-01T01:59:58;101605.31;;;8.03;79.38
16120;BME280;12670;53.502;10.252;2023-05-01T02:03:01;101593.94;;;7.99;78.76
16120;BME280;12670;53.502;10.252;2023-05-01T02:06:07;101600.78;;;8.11;77.75
16120;BME280;12670;53.502;10.252;2023-05-01T02:09:10;101589.47;;;8.03;78.33
16120;BME280;12670;53.502;10.252;2023-05-01T02:12:14;101586.69;;;8.11;78.52
16120;BME280;12670;53.502;10.252;2023-05-01T02:15:18;101581.56;;;8.01;78.32
16120;BME280;12670;53.502;10.252;2023-05-01T02:18:22;101579.97;;;7.93;79.15
16120;BME280;12670;53.502;10.252;2023-05-01T02:21:28;101572.19;;;7.84;80.04
16120;BME280;12670;53.502;10.252;2023-05-01T02:24:33;101576.72;;;7.77;80.93
16120;BME280;12670;53.502;10.252;2023-05-01T02:27:39;101568.84;;;7.72;81.65
16120;BME280;12670;53.502;10.252;2023-05-01T02:30:42;101571.56;;;7.69;81.39
16120;BME280;12670;53.502;10.252;2023-05-01T02:33:47;101566.34;;;7.65;82.29
16120;BME280;12670;53.502;10.252;2023-05-01T02:36:51;101562.19;;;7.50;82.31
16120;BME280;12670;53.502;10.252;2023-05-01T02:39:54;101554.22;;;7.53;83.51
16120;BME280;12670;53.502;10.252;2023-05-01T02:42:59;101553.50;;;7.45;83.43
16120;BME280;12670;53.502;10.252;2023-05-01T02:46:06;101552.97;;;7.21;85.55
16120;BME280;12670;53.502;10.252;2023-05-01T02:49:11;101547.59;;;7.28;84.62
16120;BME280;12670;53.502;10.252;2023-05-01T02:52:16;101551.16;;;7.24;84.54
16120;BME280;12670;53.502;10.252;2023-05-01T02:55:19;101546.81;;;7.19;85.17
16120;BME280;12670;53.502;10.252;2023-05-01T02:58:22;101554.00;;;7.11;85.82
16120;BME280;12670;53.502;10.252;2023-05-01T03:01:25;101543.56;;;7.02;86.45
16120;BME280;12670;53.502;10.252;2023-05-01T03:04:28;101539.13;;;7.06;86.01
16120;BME280;12670;53.502;10.252;2023-05-01T03:07:32;101540.16;;;6.94;85.62
16120;BME280;12670;53.502;10.252;2023-05-01T03:10:38;101529.44;;;7.06;85.94
16120;BME280;12670;53.502;10.252;2023-05-01T03:13:41;101526.91;;;6.99;86.74
16120;BME280;12670;53.502;10.252;2023-05-01T03:16:43;101533.25;;;6.87;86.69
16120;BME280;12670;53.502;10.252;2023-05-01T03:19:46;101532.34;;;6.88;87.39
16120;BME280;12670;53.502;10.252;2023-05-01T03:22:51;101526.38;;;6.75;87.52
16120;BME280;12670;53.502;10.252;2023-05-01T03:25:53;101526.50;;;6.64;87.94
16120;BME280;12670;53.502;10.252;2023-05-01T03:28:57;101519.47;;;6.65;87.94
16120;BME280;12670;53.502;10.252;2023-05-01T03:32:00;101510.63;;;6.67;88.45
16120;BME280;12670;53.502;10.252;2023-05-01T03:35:03;101517.06;;;6.47;88.88
16120;BME280;12670;53.502;10.252;2023-05-01T03:38:07;101510.72;;;6.60;87.72
16120;BME280;12670;53.502;10.252;2023-05-01T03:41:10;101500.31;;;6.49;88.99
16120;BME280;12670;53.502;10.252;2023-05-01T03:44:13;101504.78;;;6.46;89.65
16120;BME280;12670;53.502;10.252;2023-05-01T03:47:15;101495.88;;;6.53;88.75
16120;BME280;12670;53.502;10.252;2023-05-01T03:50:19;101500.31;;;6.49;89.24
16120;BME280;12670;53.502;10.252;2023-05-01T03:53:23;101493.97;;;6.62;89.35
16120;BME280;12670;53.502;10.252;2023-05-01T03:56:27;101495.81;;;6.59;88.38
16120;BME280;12670;53.502;10.252;2023-05-01T03:59:35;101489.03;;;6.39;89.63
16120;BME280;12670;53.502;10.252;2023-05-01T04:02:39;101487.28;;;6.38;89.86
16120;BME280;12670;53.502;10.252;2023-05-01T04:05:42;101485.47;;;6.42;90.84
16120;BME280;12670;53.502;10.252;2023-05-01T04:08:46;101489.78;;;6.49;90.50
16120;BME280;12670;53.502;10.252;2023-05-01T04:11:48;101481.53;;;6.74;88.81
16120;BME280;12670;53.502;10.252;2023-05-01T04:14:51;101483.34;;;6.70;89.52
16120;BME280;12670;53.502;10.252;2023-05-01T04:17:54;101477.22;;;6.70;90.04
16120;BME280;12670;53.502;10.252;2023-05-01T04:20:57;101468.25;;;6.80;89.10
16120;BME280;12670;53.502;10.252;2023-05-01T04:24:01;101467.34;;;6.82;90.19
16120;BME280;12670;53.502;10.252;2023-05-01T04:27:03;101457.78;;;6.74;91.27
16120;BME280;12670;53.502;10.252;2023-05-01T04:30:08;101463.03;;;6.77;90.75
16120;BME280;12670;53.502;10.252;2023-05-01T04:33:10;101456.84;;;6.81;89.69
16120;BME280;12670;53.502;10.252;2023-05-01T04:36:13;101462.84;;;6.89;90.28
16120;BME280;12670;53.502;10.252;2023-05-01T04:39:17;101464.41;;;7.02;89.46
16120;BME280;12670;53.502;10.252;2023-05-01T04:42:20;101459.81;;;7.13;88.82
16120;BME280;12670;53.502;10.252;2023-05-01T04:45:23;101455.16;;;7.31;88.70
16120;BME280;12670;53.502;10.252;2023-05-01T04:48:25;101448.06;;;7.34;88.64
16120;BME280;12670;53.502;10.252;2023-05-01T04:51:28;101446.16;;;7.42;88.80
16120;BME280;12670;53.502;10.252;2023-05-01T04:54:32;101449.66;;;7.43;89.64
16120;BME280;12670;53.502;10.252;2023-05-01T04:57:35;101444.00;;;7.64;88.16
16120;BME280;12670;53.502;10.252;2023-05-01T05:00:38;101446.69;;;7.61;88.67
16120;BME280;12670;53.502;10.252;2023-05-01T05:03:40;101444.00;;;7.64;88.53
16120;BME280;12670;53.502;10.252;2023-05-01T05:06:43;101445.63;;;7.71;87.95
16120;BME280;12670;53.502;10.252;2023-05-01T05:09:48;101447.81;;;7.94;88.05
16120;BME280;12670;53.502;10.252;2023-05-01T05:12:50;101446.75;;;8.03;86.11
16120;BME280;12670;53.502;10.252;2023-05-01T05:15:53;101454.50;;;8.12;85.85
16120;BME280;12670;53.502;10.252;2023-05-01T05:18:56;101454.09;;;8.34;84.65
16120;BME280;12670;53.502;10.252;2023-05-01T05:22:00;101450.47;;;8.38;84.92
16120;BME280;12670;53.502;10.252;2023-05-01T05:25:06;101452.94;;;8.47;84.44
16120;BME280;12670;53.502;10.252;2023-05-01T05:28:09;101451.13;;;8.49;81.95
16120;BME280;12670;53.502;10.252;2023-05-01T05:31:11;101444.59;;;8.65;80.26
16120;BME280;12670;53.502;10.252;2023-05-01T05:34:14;101446.91;;;8.80;79.90
16120;BME280;12670;53.502;10.252;2023-05-01T05:37:17;101439.78;;;8.82;77.94
16120;BME280;12670;53.502;10.252;2023-05-01T05:40:21;101438.56;;;8.97;77.84
16120;BME280;12670;53.502;10.252;2023-05-01T05:43:24;101434.50;;;9.18;76.70
16120;BME280;12670;53.502;10.252;2023-05-01T05:46:28;101427.25;;;9.26;76.41
16120;BME280;12670;53.502;10.252;2023-05-01T05:49:31;101429.75;;;9.32;78.45
16120;BME280;12670;53.502;10.252;2023-05-01T05:52:34;101424.16;;;9.43;78.89
16120;BME280;12670;53.502;10.252;2023-05-01T05:55:38;101431.72;;;9.58;77.74
16120;BME280;12670;53.502;10.252;2023-05-01T05:58:41;101431.88;;;9.52;78.39
16120;BME280;12670;53.502;10.252;2023-05-01T06:01:43;101424.50;;;9.64;74.66
16120;BME280;12670;53.502;10.252;2023-05-01T06:04:46;101426.69;;;9.80;74.05
16120;BME280;12670;53.502;10.252;2023-05-01T06:07:49;101423.84;;;9.88;75.81
16120;BME280;12670;53.502;10.252;2023-05-01T06:10:53;101425.19;;;10.03;76.94
16120;BME280;12670;53.502;10.252;2023-05-01T06:13:55;101415.47;;;10.03;73.67
16120;BME280;12670;53.502;10.252;2023-05-01T06:16:58;101404.03;;;10.32;75.83
16120;BME280;12670;53.502;10.252;2023-05-01T06:20:02;101400.84;;;10.49;71.99
16120;BME280;12670;53.502;10.252;2023-05-01T06:23:07;101401.16;;;10.68;71.52
16120;BME280;12670;53.502;10.252;2023-05-01T06:26:11;101403.56;;;10.76;70.71
16120;BME280;12670;53.502;10.252;2023-05-01T06:29:14;101405.00;;;10.86;69.33
16120;BME280;12670;53.502;10.252;2023-05-01T06:32:17;101403.53;;;11.04;70.17
16120;BME280;12670;53.502;10.252;2023-05-01T06:35:19;101406.13;;;11.05;67.64
16120;BME280;12670;53.502;10.252;2023-05-01T06:38:22;101402.25;;;11.15;69.39
16120;BME280;12670;53.502;10.252;2023-05-01T06:41:28;101401.56;;;11.35;65.57
16120;BME280;12670;53.502;10.252;2023-05-01T06:44:32;101407.59;;;11.40;68.62
16120;BME280;12670;53.502;10.252;2023-05-01T06:47:35;101398.03;;;11.60;67.16
16120;BME280;12670;53.502;10.252;2023-05-01T06:50:38;101391.75;;;11.62;68.11
16120;BME280;12670;53.502;10.252;2023-05-01T06:53:40;101401.94;;;11.99;64.85
16120;BME280;12670;53.502;10.252;2023-05-01T06:56:44;101393.88;;;12.03;61.67
16120;BME280;12670;53.502;10.252;2023-05-01T06:59:47;101382.19;;;12.07;65.39
16120;BME280;12670;53.502;10.252;2023-05-01T07:02:50;101380.59;;;12.24;65.76
16120;BME280;12670;53.502;10.252;2023-05-01T07:05:53;101375.81;;;12.34;61.95
16120;BME280;12670;53.502;10.252;2023-05-01T07:08:56;101377.50;;;12.59;62.68
16120;BME280;12670;53.502;10.252;2023-05-01T07:12:00;101372.34;;;12.76;60.89
16120;BME280;12670;53.502;10.252;2023-05-01T07:15:04;101373.53;;;12.69;60.32
16120;BME280;12670;53.502;10.252;2023-05-01T07:18:07;101370.13;;;12.87;60.07
16120;BME280;12670;53.502;10.252;2023-05-01T07:21:09;101370.97;;;13.10;59.00
16120;BME280;12670;53.502;10.252;2023-05-01T07:24:12;101367.84;;;13.20;55.95
16120;BME280;12670;53.502;10.252;2023-05-01T07:27:16;101364.78;;;13.31;55.21
16120;BME280;12670;53.502;10.252;2023-05-01T07:30:19;101359.56;;;13.28;58.10
16120;BME280;12670;53.502;10.252;2023-05-01T07:33:22;101354.34;;;13.25;57.44
16120;BME280;12670;53.502;10.252;2023-05-01T07:36:25;101357.56;;;13.33;58.42
16120;BME280;12670;53.502;10.252;2023-05-01T07:39:27;101352.69;;;13.22;56.14
16120;BME280;12670;53.502;10.252;2023-05-01T07:42:31;101349.78;;;13.49;55.40
16120;BME280;12670;53.502;10.252;2023-05-01T07:45:34;101348.16;;;13.24;54.43
16120;BME280;12670;53.502;10.252;2023-05-01T07:48:36;101345.31;;;13.49;57.69
16120;BME280;12670;53.502;10.252;2023-05-01T07:51:39;101337.34;;;13.68;55.03
16120;BME280;12670;53.502;10.252;2023-05-01T07:54:42;101327.63;;;13.86;59.18
16120;BME280;12670;53.502;10.252;2023-05-01T07:57:46;101328.88;;;13.98;55.60
16120;BME280;12670;53.502;10.252;2023-05-01T08:00:49;101317.63;;;14.10;54.55
16120;BME280;12670;53.502;10.252;2023-05-01T08:03:51;101310.84;;;14.22;54.50
16120;BME280;12670;53.502;10.252;2023-05-01T08:06:54;101309.94;;;14.40;55.05
16120;BME280;12670;53.502;10.252;2023-05-01T08:09:57;101315.28;;;14.40;56.87
16120;BME280;12670;53.502;10.252;2023-05-01T08:13:02;101313.78;;;14.71;55.25
16120;BME280;12670;53.502;10.252;2023-05-01T08:16:05;101307.63;;;14.87;54.24
16120;BME280;12670;53.502;10.252;2023-05-01T08:19:08;101310.59;;;15.16;54.57
16120;BME280;12670;53.502;10.252;2023-05-01T08:22:11;101306.22;;;14.98;50.68
16120;BME280;12670;53.502;10.252;2023-05-01T08:25:14;101314.31;;;14.96;50.75
16120;BME280;12670;53.502;10.252;2023-05-01T08:28:18;101299.34;;;14.57;50.74
16120;BME280;12670;53.502;10.252;2023-05-01T08:31:21;101311.31;;;15.02;52.69
16120;BME280;12670;53.502;10.252;2023-05-01T08:34:25;101297.63;;;15.43;51.35
16120;BME280;12670;53.502;10.252;2023-05-01T08:37:28;101307.38;;;15.27;49.23
16120;BME280;12670;53.502;10.252;2023-05-01T08:40:35;101302.31;;;15.55;49.19
16120;BME280;12670;53.502;10.252;2023-05-01T08:43:39;101295.66;;;16.11;51.48
16120;BME280;12670;53.502;10.252;2023-05-01T08:46:45;101289.56;;;16.25;48.86
16120;BME280;12670;53.502;10.252;2023-05-01T08:49:49;101284.53;;;16.35;52.30
16120;BME280;12670;53.502;10.252;2023-05-01T08:52:55;101277.41;;;16.65;49.51
16120;BME280;12670;53.502;10.252;2023-05-01T08:55:59;101281.63;;;16.85;50.17
16120;BME280;12670;53.502;10.252;2023-05-01T08:59:04;101279.50;;;16.44;51.43
16120;BME280;12670;53.502;10.252;2023-05-01T09:02:08;101274.09;;;17.06;51.44
16120;BME280;12670;53.502;10.252;2023-05-01T09:05:12;101279.44;;;17.06;48.52
16120;BME280;12670;53.502;10.252;2023-05-01T09:08:15;101276.22;;;17.15;49.34
16120;BME280;12670;53.502;10.252;2023-05-01T09:11:18;101261.56;;;16.76;43.92
16120;BME280;12670;53.502;10.252;2023-05-01T09:14:22;101262.28;;;17.24;46.96
16120;BME280;12670;53.502;10.252;2023-05-01T09:17:25;101256.34;;;17.76;41.59
16120;BME280;12670;53.502;10.252;2023-05-01T09:20:28;101253.47;;;17.51;41.88
16120;BME280;12670;53.502;10.252;2023-05-01T09:23:30;101248.00;;;17.95;40.28
16120;BME280;12670;53.502;10.252;2023-05-01T09:26:34;101245.72;;;18.16;41.26
16120;BME280;12670;53.502;10.252;2023-05-01T09:29:44;101248.22;;;17.78;41.15
16120;BME280;12670;53.502;10.252;2023-05-01T09:33:03;101248.19;;;17.92;40.76
16120;BME280;12670;53.502;10.252;2023-05-01T09:36:06;101233.50;;;17.98;40.87
16120;BME280;12670;53.502;10.252;2023-05-01T09:39:21;101233.16;;;17.18;39.48
16120;BME280;12670;53.502;10.252;2023-05-01T09:42:24;101235.28;;;17.42;42.18
16120;BME280;12670;53.502;10.252;2023-05-01T09:45:28;101226.75;;;18.05;39.67
16120;BME280;12670;53.502;10.252;2023-05-01T09:48:30;101229.81;;;18.67;38.37
16120;BME280;12670;53.502;10.252;2023-05-01T09:51:36;101229.63;;;18.83;37.62
16120;BME280;12670;53.502;10.252;2023-05-01T09:54:39;101225.34;;;17.99;39.10
16120;BME280;12670;53.502;10.252;2023-05-01T09:57:42;101217.72;;;18.60;37.60
16120;BME280;12670;53.502;10.252;2023-05-01T10:00:47;101220.59;;;18.84;37.19
16120;BME280;12670;53.502;10.252;2023-05-01T10:03:53;101210.16;;;19.43;38.25
16120;BME280;12670;53.502;10.252;2023-05-01T10:06:56;101205.09;;;19.64;38.89
16120;BME280;12670;53.502;10.252;2023-05-01T10:10:14;101200.25;;;20.30;34.87
16120;BME280;12670;53.502;10.252;2023-05-01T10:13:17;101192.91;;;20.56;34.70
16120;BME280;12670;53.502;10.252;2023-05-01T10:16:30;101199.88;;;19.86;33.04
16120;BME280;12670;53.502;10.252;2023-05-01T10:19:33;101197.63;;;20.17;34.68
16120;BME280;12670;53.502;10.252;2023-05-01T10:22:36;101189.16;;;20.21;33.05
16120;BME280;12670;53.502;10.252;2023-05-01T10:25:39;101189.69;;;21.08;36.17
16120;BME280;12670;53.502;10.252;2023-05-01T10:28:45;101191.03;;;21.02;35.35
16120;BME280;12670;53.502;10.252;2023-05-01T10:31:49;101178.94;;;21.19;33.68
16120;BME280;12670;53.502;10.252;2023-05-01T10:34:56;101183.94;;;21.01;31.04
16120;BME280;12670;53.502;10.252;2023-05-01T10:38:01;101175.91;;;21.35;36.73
16120;BME280;12670;53.502;10.252;2023-05-01T10:41:04;101171.81;;;21.63;32.63
16120;BME280;12670;53.502;10.252;2023-05-01T10:44:22;101162.25;;;21.14;30.48
16120;BME280;12670;53.502;10.252;2023-05-01T10:47:44;101154.69;;;21.96;32.52
16120;BME280;12670;53.502;10.252;2023-05-01T10:51:07;101155.50;;;21.65;30.75
16120;BME280;12670;53.502;10.252;2023-05-01T10:54:21;101148.28;;;21.54;32.00
16120;BME280;12670;53.502;10.252;2023-05-01T10:57:40;101149.69;;;20.44;31.56
16120;BME280;12670;53.502;10.252;2023-05-01T11:04:50;101136.22;;;20.80;35.77
16120;BME280;12670;53.502;10.252;2023-05-01T11:11:48;101125.00;;;21.31;32.00
16120;BME280;12670;53.502;10.252;2023-05-01T11:15:01;101124.31;;;21.72;29.14
16120;BME280;12670;53.502;10.252;2023-05-01T11:18:04;101113.03;;;22.10;32.23
16120;BME280;12670;53.502;10.252;2023-05-01T11:21:09;101120.56;;;21.95;31.81
16120;BME280;12670;53.502;10.252;2023-05-01T11:24:12;101116.91;;;22.80;30.46
16120;BME280;12670;53.502;10.252;2023-05-01T11:27:14;101114.91;;;22.93;29.09
16120;BME280;12670;53.502;10.252;2023-05-01T11:30:18;101115.44;;;22.66;31.50
16120;BME280;12670;53.502;10.252;2023-05-01T11:33:22;101110.78;;;23.79;28.93
16120;BME280;12670;53.502;10.252;2023-05-01T11:36:28;101100.09;;;23.28;27.95
16120;BME280;12670;53.502;10.252;2023-05-01T11:39:32;101095.44;;;22.99;29.68
16120;BME280;12670;53.502;10.252;2023-05-01T11:42:35;101090.56;;;22.51;29.96
16120;BME280;12670;53.502;10.252;2023-05-01T11:45:37;101090.66;;;22.40;29.80
16120;BME280;12670;53.502;10.252;2023-05-01T11:48:40;101082.97;;;22.45;30.43
16120;BME280;12670;53.502;10.252;2023-05-01T11:51:55;101082.06;;;22.86;30.96
16120;BME280;12670;53.502;10.252;2023-05-01T11:54:57;101079.41;;;23.27;29.13
16120;BME280;12670;53.502;10.252;2023-05-01T11:58:00;101077.81;;;23.74;29.62
16120;BME280;12670;53.502;10.252;2023-05-01T12:01:05;101068.72;;;23.75;29.31
16120;BME280;12670;53.502;10.252;2023-05-01T12:04:08;101064.75;;;23.99;28.96
16120;BME280;12670;53.502;10.252;2023-05-01T12:07:20;101061.69;;;24.31;28.47
16120;BME280;12670;53.502;10.252;2023-05-01T12:10:23;101056.88;;;24.05;28.71
16120;BME280;12670;53.502;10.252;2023-05-01T12:13:26;101050.75;;;23.93;28.60
16120;BME280;12670;53.502;10.252;2023-05-01T12:16:29;101050.91;;;24.78;29.45
16120;BME280;12670;53.502;10.252;2023-05-01T12:19:32;101055.63;;;24.76;27.67
16120;BME280;12670;53.502;10.252;2023-05-01T12:22:47;101057.28;;;23.62;27.70
16120;BME280;12670;53.502;10.252;2023-05-01T12:25:50;101044.56;;;23.43;29.41
16120;BME280;12670;53.502;10.252;2023-05-01T12:28:57;101049.88;;;23.74;28.62
16120;BME280;12670;53.502;10.252;2023-05-01T12:32:00;101047.59;;;23.79;28.19
16120;BME280;12670;53.502;10.252;2023-05-01T12:35:12;101038.38;;;23.81;27.24
16120;BME280;12670;53.502;10.252;2023-05-01T12:38:17;101024.00;;;24.57;28.15
16120;BME280;12670;53.502;10.252;2023-05-01T12:41:20;101028.44;;;25.22;30.02
16120;BME280;12670;53.502;10.252;2023-05-01T12:44:24;101021.88;;;24.88;29.92
16120;BME280;12670;53.502;10.252;2023-05-01T12:47:35;101014.28;;;26.00;28.28
16120;BME280;12670;53.502;10.252;2023-05-01T12:50:38;101024.78;;;26.39;27.69
16120;BME280;12670;53.502;10.252;2023-05-01T12:53:43;101014.78;;;26.21;26.65
16120;BME280;12670;53.502;10.252;2023-05-01T12:56:46;101009.91;;;25.36;26.44
16120;BME280;12670;53.502;10.252;2023-05-01T12:59:57;101007.22;;;24.14;26.76
16120;BME280;12670;53.502;10.252;2023-05-01T13:03:02;101002.97;;;24.68;28.29
16120;BME280;12670;53.502;10.252;2023-05-01T13:06:06;101001.41;;;24.93;30.31
16120;BME280;12670;53.502;10.252;2023-05-01T13:09:10;101000.38;;;24.39;28.42
16120;BME280;12670;53.502;10.252;2023-05-01T13:12:15;100995.84;;;23.53;27.78
16120;BME280;12670;53.502;10.252;2023-05-01T13:15:18;100990.16;;;23.75;28.69
16120;BME280;12670;53.502;10.252;2023-05-01T13:18:22;100983.88;;;23.94;29.46
16120;BME280;12670;53.502;10.252;2023-05-01T13:21:25;100986.56;;;23.46;29.65
16120;BME280;12670;53.502;10.252;2023-05-01T13:24:37;100981.03;;;23.66;29.74
16120;BME280;12670;53.502;10.252;2023-05-01T13:27:40;100984.69;;;23.36;28.32
16120;BME280;12670;53.502;10.252;2023-05-01T13:30:43;100974.06;;;23.64;29.49
16120;BME280;12670;53.502;10.252;2023-05-01T13:33:48;100977.31;;;23.77;28.05
16120;BME280;12670;53.502;10.252;2023-05-01T13:36:53;100970.31;;;23.94;30.10
16120;BME280;12670;53.502;10.252;2023-05-01T13:39:57;100977.91;;;23.81;31.66
16120;BME280;12670;53.502;10.252;2023-05-01T13:43:01;100970.19;;;23.66;28.84
16120;BME280;12670;53.502;10.252;2023-05-01T13:46:04;100968.75;;;23.53;31.35
16120;BME280;12670;53.502;10.252;2023-05-01T13:49:07;100969.03;;;23.59;30.83
16120;BME280;12670;53.502;10.252;2023-05-01T13:52:10;100961.63;;;23.42;31.64
16120;BME280;12670;53.502;10.252;2023-05-01T13:55:15;100964.56;;;23.00;30.03
16120;BME280;12670;53.502;10.252;2023-05-01T13:58:19;100958.19;;;23.30;30.01
16120;BME280;12670;53.502;10.252;2023-05-01T14:01:21;100951.56;;;23.04;32.24
16120;BME280;12670;53.502;10.252;2023-05-01T14:04:24;100955.06;;;23.35;31.65
16120;BME280;12670;53.502;10.252;2023-05-01T14:07:27;100957.34;;;23.30;32.28
16120;BME280;12670;53.502;10.252;2023-05-01T14:10:31;100946.47;;;23.20;29.17
16120;BME280;12670;53.502;10.252;2023-05-01T14:13:34;100956.66;;;23.76;30.46
16120;BME280;12670;53.502;10.252;2023-05-01T14:16:39;100944.28;;;24.20;32.08
16120;BME280;12670;53.502;10.252;2023-05-01T14:19:42;100943.91;;;23.96;28.74
16120;BME280;12670;53.502;10.252;2023-05-01T14:22:46;100935.41;;;23.72;29.45
16120;BME280;12670;53.502;10.252;2023-05-01T14:25:53;100937.84;;;22.86;29.25
16120;BME280;12670;53.502;10.252;2023-05-01T14:28:56;100938.03;;;22.54;33.39
16120;BME280;12670;53.502;10.252;2023-05-01T14:32:01;100943.34;;;22.75;30.27
16120;BME280;12670;53.502;10.252;2023-05-01T14:35:08;100940.94;;;22.72;30.76
16120;BME280;12670;53.502;10.252;2023-05-01T14:38:12;100940.59;;;22.55;30.49
16120;BME280;12670;53.502;10.252;2023-05-01T14:41:17;100926.38;;;21.81;30.18
16120;BME280;12670;53.502;10.252;2023-05-01T14:44:22;100928.91;;;21.94;31.56
16120;BME280;12670;53.502;10.252;2023-05-01T14:47:26;100933.47;;;22.03;30.71
16120;BME280;12670;53.502;10.252;2023-05-01T14:50:30;100925.34;;;21.93;31.34
16120;BME280;12670;53.502;10.252;2023-05-01T14:53:33;100928.28;;;21.90;30.24
16120;BME280;12670;53.502;10.252;2023-05-01T14:56:37;100925.50;;;22.01;31.53
16120;BME280;12670;53.502;10.252;2023-05-01T14:59:39;100921.81;;;22.02;30.89
16120;BME280;12670;53.502;10.252;2023-05-01T15:02:42;100916.53;;;22.22;31.33
16120;BME280;12670;53.502;10.252;2023-05-01T15:05:45;100918.88;;;21.85;31.38
16120;BME280;12670;53.502;10.252;2023-05-01T15:08:48;100917.09;;;21.74;31.96
16120;BME280;12670;53.502;10.252;2023-05-01T15:11:52;100910.78;;;21.64;31.61
16120;BME280;12670;53.502;10.252;2023-05-01T15:14:54;100913.53;;;21.52;31.67
16120;BME280;12670;53.502;10.252;2023-05-01T15:17:57;100912.59;;;21.42;31.46
16120;BME280;12670;53.502;10.252;2023-05-01T15:21:00;100912.66;;;21.20;31.99
16120;BME280;12670;53.502;10.252;2023-05-01T15:24:03;100912.78;;;21.29;31.44
16120;BME280;12670;53.502;10.252;2023-05-01T15:27:07;100917.28;;;21.40;31.69
16120;BME280;12670;53.502;10.252;2023-05-01T15:30:10;100910.19;;;21.60;33.50
16120;BME280;12670;53.502;10.252;2023-05-01T15:33:13;100911.16;;;21.27;31.96
16120;BME280;12670;53.502;10.252;2023-05-01T15:36:19;100917.34;;;21.18;33.05
16120;BME280;12670;53.502;10.252;2023-05-01T15:39:22;100910.06;;;20.86;31.90
16120;BME280;12670;53.502;10.252;2023-05-01T15:42:26;100907.13;;;20.89;34.56
16120;BME280;12670;53.502;10.252;2023-05-01T15:45:28;100911.69;;;21.10;33.70
16120;BME280;12670;53.502;10.252;2023-05-01T15:48:31;100909.78;;;21.00;34.05
16120;BME280;12670;53.502;10.252;2023-05-01T15:51:34;100912.38;;;20.91;34.15
16120;BME280;12670;53.502;10.252;2023-05-01T15:54:37;100910.06;;;20.86;34.73
16120;BME280;12670;53.502;10.252;2023-05-01T15:57:43;100907.75;;;20.82;35.41
16120;BME280;12670;53.502;10.252;2023-05-01T16:00:46;100906.09;;;20.58;35.30
16120;BME280;12670;53.502;10.252;2023-05-01T16:03:50;100913.06;;;20.49;35.62